This is the latest recevied weather packets stored in our database for station/object IQ5VK-13. If no packets are shown the sender has not sent any weather packets the latest 10 day(s).
| Time | Temp. | Humidity | Pressure | Rain* | Wind** | Luminosity | Snow |
|---|---|---|---|---|---|---|---|
| 1788473568 | 22.22° C | 47% | 1023.5 hPa | - | - | - | - |
| 1788471167 | 22.22° C | 49% | 1023.4 hPa | - | - | - | - |
| 1788469967 | 22.22° C | 50% | 1023.3 hPa | - | - | - | - |
| 1788468766 | 21.67° C | 53% | 1023.4 hPa | - | - | - | - |
| 1788467566 | 21.67° C | 54% | 1023.3 hPa | - | - | - | - |
| 1788466366 | 21.67° C | 54% | 1023.3 hPa | - | - | - | - |
| 1788465165 | 21.67° C | 56% | 1023.2 hPa | - | - | - | - |
| 1788463989 | 21.11° C | 58% | 1023.1 hPa | - | - | - | - |
| 1788462765 | 21.11° C | 65% | 1023.1 hPa | - | - | - | - |
| 1788461565 | 21.11° C | 66% | 1023 hPa | - | - | - | - |
| 1788459169 | 21.11° C | 62% | 1022.6 hPa | - | - | - | - |
| 1788457969 | 21.67° C | 62% | 1022.4 hPa | - | - | - | - |
| 1788456769 | 23.33° C | 59% | 1022.4 hPa | - | - | - | - |
| 1788455569 | 23.33° C | 58% | 1022.3 hPa | - | - | - | - |
| 1788454368 | 25.56° C | 51% | 1022.3 hPa | - | - | - | - |
| 1788453168 | 26.11° C | 51% | 1022.4 hPa | - | - | - | - |
| 1788451968 | 27.22° C | 51% | 1022.5 hPa | - | - | - | - |
| 1788450767 | 27.22° C | 50% | 1022.4 hPa | - | - | - | - |
| 1788449567 | 27.78° C | 50% | 1022.4 hPa | - | - | - | - |
| 1788448367 | 28.33° C | 48% | 1022.3 hPa | - | - | - | - |
| 1788447166 | 28.33° C | 49% | 1022.4 hPa | - | - | - | - |
| 1788445966 | 28.33° C | 52% | 1022.5 hPa | - | - | - | - |
| 1788444766 | 27.22° C | 54% | 1022.5 hPa | - | - | - | - |
| 1788443566 | 27.22° C | 56% | 1022.5 hPa | - | - | - | - |
| 1788442365 | 27.22° C | 58% | 1022.6 hPa | - | - | - | - |
* Rain since midnight (hover to see other rain measurements)
** Current wind speed in m/s (hover to see current wind gust speed)